createdAt,value
2022-08-10T00:01:51.785Z,2.85
2022-08-10T00:04:21.603Z,2.63
2022-08-10T00:06:49.760Z,2.45
2022-08-10T00:09:18.599Z,2.88
2022-08-10T00:11:47.059Z,2.92
2022-08-10T00:14:32.286Z,3.03
2022-08-10T00:16:59.919Z,3.15
2022-08-10T00:19:27.534Z,3.03
2022-08-10T00:22:16.913Z,3.17
2022-08-10T00:24:46.099Z,2.78
2022-08-10T00:27:52.952Z,3.08
2022-08-10T00:30:01.350Z,2.90
2022-08-10T00:32:28.961Z,2.95
2022-08-10T00:34:56.542Z,2.70
2022-08-10T00:37:24.154Z,2.95
2022-08-10T00:39:53.153Z,3.00
2022-08-10T00:42:20.752Z,3.42
2022-08-10T00:44:50.004Z,3.05
2022-08-10T00:47:36.737Z,3.20
2022-08-10T00:50:05.902Z,3.05
2022-08-10T00:52:34.380Z,2.85
2022-08-10T00:55:03.810Z,3.33
2022-08-10T00:57:31.961Z,3.25
2022-08-10T01:00:00.493Z,3.25
2022-08-10T01:02:29.853Z,3.00
2022-08-10T01:05:01.570Z,2.85
2022-08-10T01:07:45.219Z,3.30
2022-08-10T01:10:19.337Z,3.30
2022-08-10T01:12:51.230Z,3.33
2022-08-10T01:15:21.380Z,2.88
2022-08-10T01:17:53.379Z,3.03
2022-08-10T01:20:30.492Z,3.00
2022-08-10T01:23:09.005Z,3.30
2022-08-10T01:26:11.710Z,2.85
2022-08-10T01:28:35.262Z,2.90
2022-08-10T01:31:05.274Z,3.15
2022-08-10T01:34:01.835Z,3.22
2022-08-10T01:36:32.406Z,3.03
2022-08-10T01:39:03.480Z,2.78
2022-08-10T01:41:46.279Z,3.20
2022-08-10T01:44:15.806Z,2.83
2022-08-10T01:46:47.112Z,2.90
2022-08-10T01:49:15.882Z,3.17
2022-08-10T01:51:46.451Z,2.88
2022-08-10T01:54:15.126Z,3.10
2022-08-10T01:56:46.312Z,2.97
2022-08-10T01:59:15.189Z,2.72
2022-08-10T02:01:52.886Z,3.25
2022-08-10T02:04:23.542Z,3.17
2022-08-10T02:06:52.507Z,3.30
2022-08-10T02:09:23.097Z,3.40
2022-08-10T02:12:05.222Z,2.90
2022-08-10T02:14:36.378Z,3.10
2022-08-10T02:17:05.695Z,3.05
2022-08-10T02:19:36.201Z,3.00
2022-08-10T02:22:35.165Z,3.20
2022-08-10T02:24:52.541Z,3.30
2022-08-10T02:27:22.440Z,3.33
2022-08-10T02:29:51.589Z,3.08
2022-08-10T02:32:36.643Z,3.08
2022-08-10T02:35:08.239Z,3.13
2022-08-10T02:37:43.185Z,3.13
2022-08-10T02:45:15.616Z,3.05
2022-08-10T02:45:22.578Z,3.13
2022-08-10T02:45:53.460Z,3.10
2022-08-10T02:48:22.470Z,3.40
2022-08-10T02:50:56.409Z,3.20
2022-08-10T02:53:51.741Z,3.42
2022-08-10T02:56:19.762Z,3.20
2022-08-10T02:58:51.999Z,3.05
2022-08-10T03:01:22.156Z,3.13
2022-08-10T03:03:51.386Z,3.30
2022-08-10T03:06:21.991Z,3.28
2022-08-10T03:08:50.096Z,3.50
2022-08-10T03:12:36.038Z,3.13
2022-08-10T03:14:09.921Z,3.42
2022-08-10T03:16:37.872Z,3.50
2022-08-10T03:19:07.180Z,3.63
2022-08-10T03:21:56.709Z,3.10
2022-08-10T03:24:32.821Z,3.25
2022-08-10T03:27:01.762Z,3.67
2022-08-10T03:29:29.881Z,3.70
2022-08-10T03:32:17.909Z,3.58
2022-08-10T03:34:45.728Z,4.05
2022-08-10T03:37:15.509Z,3.88
2022-08-10T03:39:43.250Z,3.45
2022-08-10T03:42:13.654Z,3.80
2022-08-10T03:44:42.154Z,3.67
2022-08-10T03:47:16.124Z,3.50
2022-08-10T03:49:45.743Z,3.15
2022-08-10T03:52:15.058Z,3.42
2022-08-10T03:54:43.257Z,3.40
2022-08-10T03:57:11.275Z,3.55
2022-08-10T03:59:39.255Z,3.15
2022-08-10T04:02:44.211Z,3.65
2022-08-10T04:04:54.742Z,3.30
2022-08-10T04:07:23.623Z,3.40
2022-08-10T04:09:55.534Z,3.85
2022-08-10T04:12:24.088Z,3.80
2022-08-10T04:14:53.287Z,3.53
2022-08-10T04:17:57.031Z,4.03
2022-08-10T04:20:12.808Z,3.50
2022-08-10T04:22:42.702Z,3.67
2022-08-10T04:25:11.594Z,3.47
2022-08-10T04:27:40.271Z,3.88
2022-08-10T04:30:08.294Z,3.17
2022-08-10T04:32:37.479Z,3.28
2022-08-10T04:35:05.897Z,3.45
2022-08-10T04:37:35.042Z,3.30
2022-08-10T04:40:06.115Z,3.47
2022-08-10T04:42:53.903Z,3.40
2022-08-10T04:45:48.536Z,3.67
2022-08-10T04:48:41.308Z,3.63
2022-08-10T04:51:04.684Z,3.80
2022-08-10T04:53:32.544Z,3.92
2022-08-10T04:56:01.441Z,3.88
2022-08-10T04:58:29.211Z,3.72
2022-08-10T05:00:56.898Z,3.80
2022-08-10T05:03:24.487Z,3.80
2022-08-10T05:05:52.808Z,3.72
2022-08-10T05:08:22.314Z,3.83
2022-08-10T05:10:49.882Z,4.03
2022-08-10T05:13:18.786Z,4.32
2022-08-10T05:15:46.374Z,3.60
2022-08-10T05:18:14.026Z,3.55
2022-08-10T05:20:41.760Z,4.03
2022-08-10T05:23:27.237Z,4.05
2022-08-10T05:25:54.866Z,3.75
2022-08-10T05:28:23.758Z,4.10
2022-08-10T05:30:57.932Z,3.55
2022-08-10T05:33:25.799Z,3.75
2022-08-10T05:35:56.900Z,3.80
2022-08-10T05:38:26.962Z,4.05
2022-08-10T05:40:54.802Z,3.72
2022-08-10T05:43:24.472Z,3.80
2022-08-10T05:46:18.130Z,3.40
2022-08-10T05:48:59.281Z,4.18
2022-08-10T05:51:28.618Z,3.33
2022-08-10T05:54:03.208Z,3.53
2022-08-10T05:56:53.667Z,3.33
2022-08-10T06:00:08.973Z,4.13
2022-08-10T06:02:31.851Z,4.07
2022-08-10T06:04:59.537Z,4.35
2022-08-10T06:07:28.007Z,3.80
2022-08-10T06:09:59.777Z,3.92
2022-08-10T06:12:30.979Z,4.05
2022-08-10T06:15:05.896Z,4.00
2022-08-10T06:17:38.195Z,3.95
2022-08-10T06:20:06.357Z,4.15
2022-08-10T06:22:34.120Z,3.88
2022-08-10T06:25:32.409Z,3.90
2022-08-10T06:27:50.442Z,3.88
2022-08-10T06:30:20.649Z,3.60
2022-08-10T06:32:49.011Z,3.65
2022-08-10T06:35:17.447Z,3.28
2022-08-10T06:37:50.753Z,3.28
2022-08-10T06:40:20.565Z,3.80
2022-08-10T06:42:49.794Z,3.78
2022-08-10T06:45:21.086Z,3.30
2022-08-10T06:47:52.415Z,3.20
2022-08-10T06:50:34.782Z,3.78
2022-08-10T06:53:13.016Z,2.88
2022-08-10T06:55:55.556Z,3.38
2022-08-10T06:58:26.723Z,3.03
2022-08-10T07:00:56.353Z,3.05
2022-08-10T07:03:27.278Z,3.03
2022-08-10T07:05:55.339Z,2.85
2022-08-10T07:08:24.015Z,2.88
2022-08-10T07:10:52.676Z,3.10
2022-08-10T07:14:15.858Z,3.10
2022-08-10T07:16:11.785Z,3.20
2022-08-10T07:18:39.878Z,2.63
2022-08-10T07:21:08.326Z,3.20
2022-08-10T07:23:57.856Z,2.92
2022-08-10T07:26:25.039Z,2.90
2022-08-10T07:28:53.931Z,2.67
2022-08-10T07:31:36.854Z,2.72
2022-08-10T07:34:10.978Z,2.60
2022-08-10T07:36:39.531Z,2.85
2022-08-10T07:39:07.633Z,2.40
2022-08-10T07:41:35.649Z,2.40
2022-08-10T07:44:05.163Z,2.55
2022-08-10T07:46:34.954Z,2.40
2022-08-10T07:49:19.295Z,2.83
2022-08-10T07:51:47.886Z,2.50
2022-08-10T07:54:23.794Z,2.70
2022-08-10T07:56:53.475Z,2.55
2022-08-10T07:59:23.750Z,2.10
2022-08-10T08:01:53.575Z,2.63
2022-08-10T08:04:22.033Z,2.50
2022-08-10T08:06:51.578Z,2.53
2022-08-10T08:09:20.096Z,2.63
2022-08-10T08:11:49.399Z,2.25
2022-08-10T08:14:17.266Z,2.55
2022-08-10T08:16:46.393Z,2.33
2022-08-10T08:19:37.570Z,2.50
2022-08-10T08:24:10.071Z,2.78
2022-08-10T08:24:52.852Z,2.63
2022-08-10T08:27:21.496Z,2.60
2022-08-10T08:29:50.146Z,2.75
2022-08-10T08:32:19.210Z,2.70
2022-08-10T08:34:48.408Z,2.70
2022-08-10T08:38:28.805Z,2.30
2022-08-10T08:40:07.253Z,2.53
2022-08-10T08:42:39.144Z,2.60
2022-08-10T08:45:12.234Z,2.70
2022-08-10T08:48:03.784Z,2.55
2022-08-10T08:50:40.882Z,2.25
2022-08-10T08:53:21.880Z,2.80
2022-08-10T08:56:05.869Z,2.47
2022-08-10T08:58:39.838Z,2.85
2022-08-10T09:01:14.742Z,2.70
2022-08-10T09:03:53.621Z,2.63
2022-08-10T09:06:30.612Z,2.83
2022-08-10T09:09:08.184Z,2.60
2022-08-10T09:11:41.802Z,2.47
2022-08-10T09:14:12.465Z,2.85
2022-08-10T09:16:45.524Z,3.00
2022-08-10T09:19:19.622Z,2.65
2022-08-10T09:22:17.916Z,2.65
2022-08-10T09:24:49.650Z,3.10
2022-08-10T09:27:20.167Z,3.10
2022-08-10T09:29:52.044Z,2.53
2022-08-10T09:33:05.457Z,2.75
2022-08-10T09:36:21.776Z,2.88
2022-08-10T09:38:19.034Z,3.00
2022-08-10T09:40:59.454Z,3.40
2022-08-10T09:43:36.278Z,3.08
2022-08-10T09:46:11.927Z,3.00
2022-08-10T09:48:42.372Z,2.50
2022-08-10T09:51:42.089Z,2.95
2022-08-10T09:54:07.506Z,2.80
2022-08-10T09:56:41.784Z,3.00
2022-08-10T09:59:27.196Z,2.53
2022-08-10T10:02:04.512Z,2.92
2022-08-10T10:04:38.247Z,2.63
2022-08-10T10:07:06.777Z,2.83
2022-08-10T10:09:39.895Z,2.90
2022-08-10T10:12:12.781Z,2.78
2022-08-10T10:14:58.177Z,3.10
2022-08-10T10:17:28.995Z,2.92
2022-08-10T10:20:00.642Z,2.80
2022-08-10T10:22:37.674Z,2.92
2022-08-10T10:25:20.702Z,2.95
2022-08-10T10:27:51.852Z,2.95
2022-08-10T10:30:20.817Z,2.95
2022-08-10T10:32:58.431Z,2.80
2022-08-10T10:35:30.464Z,3.00
2022-08-10T10:38:02.167Z,2.83
2022-08-10T10:40:39.199Z,3.00
2022-08-10T10:43:10.700Z,3.00
2022-08-10T10:45:50.315Z,3.22
2022-08-10T10:48:24.377Z,2.25
2022-08-10T10:51:01.669Z,3.33
2022-08-10T10:53:32.126Z,2.63
2022-08-10T10:56:15.320Z,2.65
2022-08-10T10:58:50.109Z,2.38
2022-08-10T11:01:25.249Z,2.60
2022-08-10T11:04:01.484Z,2.70
2022-08-10T11:06:40.190Z,3.15
2022-08-10T11:09:12.580Z,3.00
2022-08-10T11:12:04.982Z,2.72
2022-08-10T11:14:37.099Z,2.83
2022-08-10T11:17:12.904Z,3.40
2022-08-10T11:20:02.532Z,2.47
2022-08-10T11:22:36.720Z,2.53
2022-08-10T11:25:09.143Z,2.60
2022-08-10T11:27:43.097Z,2.90
2022-08-10T11:30:12.239Z,2.83
2022-08-10T11:32:45.710Z,3.00
2022-08-10T11:35:19.527Z,2.63
2022-08-10T11:38:31.713Z,2.70
2022-08-10T11:40:43.117Z,3.00
2022-08-10T11:43:14.389Z,2.65
2022-08-10T11:45:52.418Z,2.78
2022-08-10T11:48:54.101Z,2.30
2022-08-10T11:51:14.896Z,2.50
2022-08-10T11:53:46.916Z,2.30
2022-08-10T11:56:26.480Z,2.38
2022-08-10T11:59:16.642Z,2.50
2022-08-10T12:01:45.871Z,2.55
2022-08-10T12:04:15.765Z,2.33
2022-08-10T12:06:59.817Z,2.70
2022-08-10T12:10:09.042Z,2.63
2022-08-10T12:12:16.249Z,2.20
2022-08-10T12:14:49.209Z,2.45
2022-08-10T12:17:17.700Z,2.80
2022-08-10T12:20:02.075Z,2.60
2022-08-10T12:22:34.032Z,2.60
2022-08-10T12:25:03.697Z,2.45
2022-08-10T12:27:35.864Z,2.10
2022-08-10T12:30:06.806Z,2.35
2022-08-10T12:32:41.294Z,2.00
2022-08-10T12:35:17.987Z,2.10
2022-08-10T12:37:52.966Z,2.20
2022-08-10T12:40:35.002Z,2.10
2022-08-10T12:44:04.010Z,2.40
2022-08-10T12:46:05.851Z,2.22
2022-08-10T12:48:36.491Z,2.22
2022-08-10T12:51:05.844Z,2.30
2022-08-10T12:53:37.299Z,2.03
2022-08-10T12:56:06.829Z,2.20
2022-08-10T12:58:59.660Z,2.25
2022-08-10T13:01:26.343Z,2.10
2022-08-10T13:04:21.453Z,1.80
2022-08-10T13:06:52.322Z,2.10
2022-08-10T13:09:22.295Z,2.20
2022-08-10T13:12:38.093Z,2.05
2022-08-10T13:14:42.789Z,2.08
2022-08-10T13:17:12.311Z,2.00
2022-08-10T13:19:56.047Z,1.73
2022-08-10T13:22:27.002Z,1.63
2022-08-10T13:24:55.788Z,2.10
2022-08-10T13:28:01.331Z,2.08
2022-08-10T13:30:15.380Z,1.90
2022-08-10T13:32:49.149Z,1.90
2022-08-10T13:35:18.817Z,2.00
2022-08-10T13:37:47.650Z,1.70
2022-08-10T13:40:16.262Z,1.88
2022-08-10T13:42:45.067Z,1.63
2022-08-10T13:45:14.320Z,1.80
2022-08-10T13:47:48.947Z,1.90
2022-08-10T13:50:33.118Z,2.20
2022-08-10T13:53:03.681Z,2.30
2022-08-10T13:55:46.056Z,1.98
2022-08-10T13:58:25.707Z,2.05
2022-08-10T14:00:54.894Z,2.05
2022-08-10T14:03:23.881Z,1.92
2022-08-10T14:05:54.359Z,1.90
2022-08-10T14:08:24.858Z,2.15
2022-08-10T14:11:08.717Z,2.00
2022-08-10T14:13:38.581Z,2.17
2022-08-10T14:16:06.905Z,1.88
2022-08-10T14:18:34.824Z,1.90
2022-08-10T14:21:04.978Z,1.90
2022-08-10T14:23:35.236Z,2.08
2022-08-10T14:26:08.689Z,2.05
2022-08-10T14:28:39.437Z,1.98
2022-08-10T14:31:08.069Z,1.77
2022-08-10T14:33:36.630Z,1.92
2022-08-10T14:36:22.033Z,1.85
2022-08-10T14:38:54.141Z,2.33
2022-08-10T14:42:02.460Z,2.00
2022-08-10T14:44:13.763Z,1.80
2022-08-10T14:46:44.824Z,2.10
2022-08-10T14:49:25.705Z,1.80
2022-08-10T14:51:59.521Z,2.05
2022-08-10T14:54:29.895Z,2.03
2022-08-10T14:57:11.049Z,1.67
2022-08-10T15:00:25.095Z,1.88
2022-08-10T15:02:39.871Z,2.00
2022-08-10T15:05:17.895Z,1.85
2022-08-10T15:07:48.074Z,1.67
2022-08-10T15:10:28.179Z,1.88
2022-08-10T15:12:58.910Z,1.80
2022-08-10T15:15:28.802Z,1.90
2022-08-10T15:17:58.950Z,2.10
2022-08-10T15:20:28.554Z,1.70
2022-08-10T15:23:00.827Z,1.70
2022-08-10T15:25:29.427Z,1.88
2022-08-10T15:28:05.254Z,1.80
2022-08-10T15:30:39.685Z,1.67
2022-08-10T15:34:03.433Z,2.00
2022-08-10T15:36:26.054Z,1.73
2022-08-10T15:39:00.597Z,1.63
2022-08-10T15:41:57.859Z,1.90
2022-08-10T15:44:24.002Z,1.67
2022-08-10T15:46:54.252Z,1.73
2022-08-10T15:49:26.208Z,1.60
2022-08-10T15:51:58.202Z,1.60
2022-08-10T15:54:34.566Z,1.60
2022-08-10T15:57:03.580Z,1.65
2022-08-10T15:59:33.555Z,1.75
2022-08-10T16:02:16.243Z,1.90
2022-08-10T16:04:48.444Z,1.80
2022-08-10T16:07:19.382Z,1.75
2022-08-10T16:10:23.981Z,1.83
2022-08-10T16:12:42.924Z,1.70
2022-08-10T16:15:12.105Z,1.90
2022-08-10T16:17:54.851Z,1.85
2022-08-10T16:20:27.614Z,1.92
2022-08-10T16:22:57.369Z,1.83
2022-08-10T16:25:48.552Z,1.98
2022-08-10T16:28:23.379Z,2.00
2022-08-10T16:30:52.500Z,2.28
2022-08-10T16:33:23.169Z,2.03
2022-08-10T16:35:52.663Z,2.10
2022-08-10T16:38:20.821Z,2.25
2022-08-10T16:40:51.576Z,2.30
2022-08-10T16:43:23.901Z,1.95
2022-08-10T16:45:53.886Z,2.03
2022-08-10T16:48:48.604Z,2.13
2022-08-10T16:51:14.731Z,2.10
2022-08-10T16:53:47.492Z,2.20
2022-08-10T16:56:17.308Z,1.80
2022-08-10T16:58:46.079Z,2.08
2022-08-10T17:01:17.398Z,1.95
2022-08-10T17:04:07.620Z,1.98
2022-08-10T17:06:55.823Z,1.95
2022-08-10T17:09:25.840Z,2.20
2022-08-10T17:11:56.154Z,1.95
2022-08-10T17:14:24.914Z,2.15
2022-08-10T17:16:53.357Z,1.90
2022-08-10T17:19:22.728Z,1.85
2022-08-10T17:21:52.545Z,1.98
2022-08-10T17:24:20.948Z,1.90
2022-08-10T17:26:49.425Z,1.80
2022-08-10T17:29:58.412Z,1.80
2022-08-10T17:32:09.369Z,1.90
2022-08-10T17:34:39.298Z,2.00
2022-08-10T17:37:11.924Z,1.70
2022-08-10T17:39:41.988Z,1.65
2022-08-10T17:42:10.505Z,1.88
2022-08-10T17:44:40.682Z,1.63
2022-08-10T17:47:10.832Z,1.67
2022-08-10T17:49:39.671Z,1.70
2022-08-10T17:52:09.405Z,1.70
2022-08-10T17:54:39.180Z,1.70
2022-08-10T17:57:08.991Z,1.90
2022-08-10T17:59:37.816Z,1.38
2022-08-10T18:02:09.138Z,1.40
2022-08-10T18:04:41.817Z,1.65
2022-08-10T18:07:10.846Z,1.85
2022-08-10T18:09:39.878Z,1.98
2022-08-10T18:12:17.750Z,1.42
2022-08-10T18:14:47.890Z,1.70
2022-08-10T18:17:19.042Z,1.40
2022-08-10T18:19:47.738Z,1.23
2022-08-10T18:22:17.077Z,1.65
2022-08-10T18:24:45.242Z,1.30
2022-08-10T18:27:14.002Z,1.40
2022-08-10T18:29:43.724Z,1.30
2022-08-10T18:32:12.075Z,1.50
2022-08-10T18:34:42.089Z,1.58
2022-08-10T18:37:10.735Z,1.50
2022-08-10T18:39:39.711Z,1.25
2022-08-10T18:42:10.675Z,1.40
2022-08-10T18:44:41.119Z,1.55
2022-08-10T18:47:13.070Z,1.80
2022-08-10T18:49:51.758Z,1.40
2022-08-10T18:52:21.272Z,1.52
2022-08-10T18:54:50.747Z,1.73
2022-08-10T18:57:45.976Z,1.30
2022-08-10T19:00:14.206Z,1.80
2022-08-10T19:02:51.744Z,1.42
2022-08-10T19:05:30.279Z,1.70
2022-08-10T19:08:14.392Z,1.60
2022-08-10T19:11:02.781Z,1.33
2022-08-10T19:13:51.101Z,1.40
2022-08-10T19:16:26.414Z,1.60
2022-08-10T19:19:01.615Z,1.52
2022-08-10T19:21:33.695Z,1.50
2022-08-10T19:24:10.378Z,1.60
2022-08-10T19:26:46.028Z,1.67
2022-08-10T19:30:08.222Z,1.45
2022-08-10T19:32:14.934Z,1.40
2022-08-10T19:34:46.967Z,1.55
2022-08-10T19:37:21.767Z,1.88
2022-08-10T19:40:12.155Z,1.60
2022-08-10T19:42:41.489Z,1.77
2022-08-10T19:46:01.664Z,1.67
2022-08-10T19:48:09.829Z,1.60
2022-08-10T19:50:41.555Z,1.85
2022-08-10T19:53:14.154Z,1.60
2022-08-10T19:55:43.900Z,1.70
2022-08-10T19:58:17.539Z,1.83
2022-08-10T20:00:50.493Z,1.70
2022-08-10T20:03:21.781Z,1.85
2022-08-10T20:06:18.945Z,1.60
2022-08-10T20:08:45.299Z,1.70
2022-08-10T20:11:45.723Z,1.80
2022-08-10T20:14:21.999Z,1.80
2022-08-10T20:16:51.108Z,1.90
2022-08-10T20:19:22.211Z,1.60
2022-08-10T20:21:52.765Z,1.90
2022-08-10T20:24:24.731Z,1.80
2022-08-10T20:26:55.110Z,1.73
2022-08-10T20:29:57.876Z,1.90
2022-08-10T20:32:18.393Z,2.10
2022-08-10T20:34:48.476Z,1.90
2022-08-10T20:37:45.074Z,1.90
2022-08-10T20:40:14.716Z,1.92
2022-08-10T20:42:47.037Z,1.70
2022-08-10T20:45:21.721Z,1.80
2022-08-10T20:47:54.848Z,2.08
2022-08-10T20:50:28.902Z,1.95
2022-08-10T20:52:58.521Z,1.80
2022-08-10T20:55:28.127Z,2.08
2022-08-10T20:58:06.908Z,2.00
2022-08-10T21:00:43.070Z,1.90
2022-08-10T21:03:22.081Z,1.90
2022-08-10T21:05:59.653Z,1.95
2022-08-10T21:08:34.938Z,2.00
2022-08-10T21:11:08.732Z,2.10
2022-08-10T21:13:44.994Z,2.20
2022-08-10T21:16:21.335Z,1.90
2022-08-10T21:18:54.750Z,2.05
2022-08-10T21:21:41.322Z,1.75
2022-08-10T21:24:12.898Z,2.25
2022-08-10T21:26:51.111Z,2.70
2022-08-10T21:29:37.903Z,2.10
2022-08-10T21:32:12.131Z,1.92
2022-08-10T21:34:53.034Z,2.10
2022-08-10T21:37:26.495Z,2.08
2022-08-10T21:40:32.172Z,2.10
2022-08-10T21:43:20.903Z,2.20
2022-08-10T21:46:02.825Z,2.40
2022-08-10T21:48:41.889Z,2.30
2022-08-10T21:52:00.695Z,2.30
2022-08-10T21:54:31.192Z,2.40
2022-08-10T21:57:12.184Z,2.38
2022-08-10T21:59:58.503Z,2.10
2022-08-10T22:02:37.112Z,2.45
2022-08-10T22:05:13.683Z,2.50
2022-08-10T22:07:51.975Z,2.35
2022-08-10T22:10:34.081Z,2.70
2022-08-10T22:13:13.071Z,2.80
2022-08-10T22:16:09.631Z,2.10
2022-08-10T22:19:02.145Z,2.47
2022-08-10T22:21:46.263Z,2.45
2022-08-10T22:24:29.545Z,2.72
2022-08-10T22:27:46.352Z,2.60
2022-08-10T22:30:22.978Z,2.40
2022-08-10T22:33:16.973Z,2.63
2022-08-10T22:36:02.696Z,3.00
2022-08-10T22:38:48.250Z,2.65
2022-08-10T22:41:32.902Z,2.88
2022-08-10T22:44:10.966Z,3.00
2022-08-10T22:46:51.096Z,2.65
2022-08-10T22:49:22.903Z,2.78
2022-08-10T22:51:53.391Z,2.70
2022-08-10T22:54:32.892Z,2.83
2022-08-10T22:57:10.012Z,2.80
2022-08-10T22:59:37.987Z,3.20
2022-08-10T23:02:09.319Z,2.40
2022-08-10T23:04:44.961Z,2.92
2022-08-10T23:07:19.698Z,3.20
2022-08-10T23:09:48.876Z,2.75
2022-08-10T23:12:18.428Z,2.70
2022-08-10T23:14:59.990Z,2.80
2022-08-10T23:18:02.042Z,2.78
2022-08-10T23:20:31.548Z,2.80
2022-08-10T23:23:09.031Z,2.90
2022-08-10T23:25:43.683Z,2.60
2022-08-10T23:28:39.054Z,3.05
2022-08-10T23:31:13.084Z,3.08
2022-08-10T23:33:42.438Z,2.90
2022-08-10T23:36:34.613Z,2.90
2022-08-10T23:39:26.067Z,2.50
2022-08-10T23:41:53.284Z,2.78
2022-08-10T23:44:23.235Z,3.00
2022-08-10T23:46:51.047Z,2.88
2022-08-10T23:49:20.029Z,2.90
2022-08-10T23:51:55.504Z,2.85
2022-08-10T23:54:25.177Z,2.67
2022-08-10T23:56:55.145Z,2.70
2022-08-10T23:59:26.031Z,2.92
